createdAt,value
2023-01-29T00:03:16.059Z,66.72
2023-01-29T00:08:17.606Z,62.86
2023-01-29T00:13:19.077Z,60.67
2023-01-29T00:18:20.753Z,58.76
2023-01-29T00:23:23.008Z,63.26
2023-01-29T00:28:24.513Z,63.56
2023-01-29T00:33:28.558Z,61.32
2023-01-29T00:38:30.119Z,59.29
2023-01-29T00:43:50.223Z,57.95
2023-01-29T00:48:51.866Z,65.29
2023-01-29T00:53:57.667Z,63.96
2023-01-29T00:58:59.858Z,61.21
2023-01-29T01:04:01.434Z,57.22
2023-01-29T01:09:22.663Z,61.95
2023-01-29T01:14:24.134Z,65.48
2023-01-29T01:19:25.708Z,61.57
2023-01-29T01:24:27.416Z,58.45
2023-01-29T01:29:29.064Z,63.60
2023-01-29T01:34:30.748Z,64.58
2023-01-29T01:39:32.217Z,60.85
2023-01-29T01:44:58.804Z,58.02
2023-01-29T01:50:15.567Z,62.28
2023-01-29T01:55:20.951Z,66.98
2023-01-29T02:00:25.599Z,63.52
2023-01-29T02:05:47.341Z,61.13
2023-01-29T02:10:49.459Z,57.80
2023-01-29T02:15:51.102Z,63.84
2023-01-29T02:21:13.254Z,65.61
2023-01-29T02:26:45.446Z,62.89
2023-01-29T02:31:56.562Z,61.73
2023-01-29T02:37:04.466Z,61.21
2023-01-29T02:42:26.824Z,60.17
2023-01-29T02:47:36.491Z,58.79
2023-01-29T02:52:50.719Z,62.35
2023-01-29T02:57:58.883Z,65.36
2023-01-29T03:03:29.645Z,64.13
2023-01-29T03:08:42.801Z,63.77
2023-01-29T03:13:59.523Z,62.60
2023-01-29T03:19:15.836Z,61.39
2023-01-29T03:24:40.754Z,61.05
2023-01-29T03:30:02.721Z,60.77
2023-01-29T03:35:07.939Z,58.58
2023-01-29T03:40:10.644Z,59.94
2023-01-29T03:45:24.416Z,67.16
2023-01-29T03:50:41.862Z,63.46
2023-01-29T03:55:55.620Z,61.61
2023-01-29T04:01:02.416Z,61.39
2023-01-29T04:06:12.853Z,59.73
2023-01-29T04:11:19.386Z,65.31
2023-01-29T04:16:26.610Z,65.53
2023-01-29T04:21:31.304Z,63.80
2023-01-29T04:26:51.250Z,62.88
2023-01-29T04:31:52.803Z,63.19
2023-01-29T04:37:09.551Z,62.80
2023-01-29T04:42:20.843Z,62.47
2023-01-29T04:47:41.343Z,62.35
2023-01-29T04:53:21.237Z,62.61
2023-01-29T04:58:32.731Z,63.13
2023-01-29T05:03:37.172Z,63.29
2023-01-29T05:08:40.695Z,62.80
2023-01-29T05:13:44.283Z,62.77
2023-01-29T05:18:46.407Z,63.01
2023-01-29T05:24:10.327Z,62.16
2023-01-29T05:29:11.865Z,61.85
2023-01-29T05:34:13.849Z,60.37
2023-01-29T05:39:16.040Z,59.23
2023-01-29T05:44:17.533Z,63.21
2023-01-29T05:49:20.101Z,69.49
2023-01-29T05:54:21.583Z,67.01
2023-01-29T05:59:23.145Z,65.26
2023-01-29T06:04:24.614Z,64.65
2023-01-29T06:09:26.083Z,64.54
2023-01-29T06:14:27.868Z,63.94
2023-01-29T06:19:29.337Z,63.63
2023-01-29T06:24:33.041Z,63.84
2023-01-29T06:29:34.628Z,64.28
2023-01-29T06:34:36.303Z,64.62
2023-01-29T06:39:37.773Z,64.47
2023-01-29T06:44:39.344Z,64.95
2023-01-29T06:49:40.817Z,64.81
2023-01-29T06:54:42.518Z,64.25
2023-01-29T06:59:43.969Z,63.07
2023-01-29T07:04:45.368Z,63.05
2023-01-29T07:09:46.803Z,62.14
2023-01-29T07:14:48.268Z,61.81
2023-01-29T07:19:49.841Z,61.44
2023-01-29T07:24:51.425Z,61.33
2023-01-29T07:29:53.092Z,61.46
2023-01-29T07:34:54.482Z,61.42
2023-01-29T07:39:55.931Z,61.12
2023-01-29T07:44:57.604Z,61.48
2023-01-29T07:49:59.075Z,61.70
2023-01-29T07:55:00.542Z,61.79
2023-01-29T08:00:02.114Z,60.82
2023-01-29T08:05:04.512Z,60.71
2023-01-29T08:10:06.395Z,61.61
2023-01-29T08:15:08.850Z,61.13
2023-01-29T08:20:11.342Z,60.59
2023-01-29T08:25:14.173Z,60.22
2023-01-29T08:30:16.921Z,59.79
2023-01-29T08:35:19.902Z,59.91
2023-01-29T08:40:22.069Z,59.87
2023-01-29T08:45:23.540Z,64.98
2023-01-29T08:50:25.215Z,64.70
2023-01-29T08:55:28.014Z,63.26
2023-01-29T09:00:29.588Z,63.07
2023-01-29T09:05:31.289Z,62.42
2023-01-29T09:10:33.467Z,60.52
2023-01-29T09:15:34.905Z,60.08
2023-01-29T09:20:38.371Z,59.89
2023-01-29T09:25:42.511Z,59.87
2023-01-29T09:30:44.752Z,60.39
2023-01-29T09:35:46.640Z,61.45
2023-01-29T09:40:57.833Z,61.25
2023-01-29T09:46:05.294Z,60.63
2023-01-29T09:51:19.004Z,60.76
2023-01-29T09:56:23.100Z,61.80
2023-01-29T10:01:34.130Z,62.92
2023-01-29T10:07:01.713Z,63.52
2023-01-29T10:12:28.373Z,63.20
2023-01-29T10:17:32.609Z,63.74
2023-01-29T10:22:37.151Z,64.13
2023-01-29T10:27:41.551Z,63.17
2023-01-29T10:32:44.905Z,62.75
2023-01-29T10:37:46.974Z,63.13
2023-01-29T10:42:51.431Z,63.30
2023-01-29T10:48:08.571Z,62.73
2023-01-29T10:53:19.561Z,62.78
2023-01-29T10:58:29.843Z,62.02
2023-01-29T11:03:32.982Z,61.03
2023-01-29T11:08:42.710Z,59.88
2023-01-29T11:14:04.761Z,59.76
2023-01-29T11:19:06.436Z,66.45
2023-01-29T11:24:14.871Z,65.51
2023-01-29T11:29:41.176Z,63.59
2023-01-29T11:35:05.837Z,62.78
2023-01-29T11:40:36.908Z,62.82
2023-01-29T11:45:39.805Z,62.87
2023-01-29T11:50:41.863Z,62.76
2023-01-29T11:55:50.900Z,63.06
2023-01-29T12:00:55.035Z,62.79
2023-01-29T12:06:05.379Z,61.88
2023-01-29T12:11:26.787Z,61.81
2023-01-29T12:16:51.402Z,61.70
2023-01-29T12:22:03.744Z,61.72
2023-01-29T12:27:24.548Z,62.27
2023-01-29T12:32:35.337Z,62.21
2023-01-29T12:37:40.287Z,62.18
2023-01-29T12:42:47.798Z,61.67
2023-01-29T12:47:58.398Z,61.78
2023-01-29T12:53:09.995Z,62.08
2023-01-29T12:58:11.462Z,61.16
2023-01-29T13:03:18.917Z,60.43
2023-01-29T13:08:22.821Z,60.01
2023-01-29T13:13:40.449Z,59.36
2023-01-29T13:19:00.872Z,64.61
2023-01-29T13:24:09.608Z,66.29
2023-01-29T13:29:20.908Z,64.69
2023-01-29T13:34:24.118Z,63.83
2023-01-29T13:39:33.267Z,63.35
2023-01-29T13:44:39.313Z,63.11
2023-01-29T13:49:47.265Z,63.31
2023-01-29T13:54:58.259Z,63.55
2023-01-29T13:59:59.838Z,63.60
2023-01-29T14:05:29.287Z,63.30
2023-01-29T14:10:33.702Z,63.26
2023-01-29T14:15:36.709Z,64.01
2023-01-29T14:20:45.639Z,64.14
2023-01-29T14:25:48.146Z,64.12
2023-01-29T14:30:50.611Z,64.04
2023-01-29T14:35:56.214Z,63.78
2023-01-29T14:41:32.178Z,64.87
2023-01-29T14:46:33.773Z,64.61
2023-01-29T14:51:39.939Z,65.39
2023-01-29T14:56:49.190Z,65.85
2023-01-29T15:01:55.184Z,65.26
2023-01-29T15:07:05.648Z,65.47
2023-01-29T15:12:17.362Z,64.90
2023-01-29T15:17:26.063Z,64.65
2023-01-29T15:22:29.847Z,65.09
2023-01-29T15:27:31.664Z,64.36
2023-01-29T15:32:36.875Z,64.00
2023-01-29T15:37:39.459Z,64.74
2023-01-29T15:42:46.339Z,64.31
2023-01-29T15:47:48.552Z,64.81
2023-01-29T15:52:54.104Z,64.87
2023-01-29T15:57:57.113Z,64.23
2023-01-29T16:03:01.923Z,64.33
2023-01-29T16:08:04.455Z,64.48
2023-01-29T16:13:29.589Z,64.95
2023-01-29T16:18:39.484Z,64.93
2023-01-29T16:23:49.722Z,64.86
2023-01-29T16:28:52.054Z,64.75
2023-01-29T16:33:56.218Z,64.91
2023-01-29T16:39:05.813Z,64.28
2023-01-29T16:44:17.005Z,63.34
2023-01-29T16:49:30.564Z,64.14
2023-01-29T16:54:32.032Z,63.15
2023-01-29T16:59:37.911Z,63.13
2023-01-29T17:04:41.782Z,63.19
2023-01-29T17:09:43.710Z,63.78
2023-01-29T17:15:25.526Z,62.66
2023-01-29T17:20:27.936Z,62.94
2023-01-29T17:25:29.594Z,63.33
2023-01-29T17:30:36.412Z,63.19
2023-01-29T17:35:38.064Z,62.81
2023-01-29T17:40:55.199Z,62.92
2023-01-29T17:45:56.860Z,64.88
2023-01-29T17:51:02.463Z,65.55
2023-01-29T17:56:04.813Z,65.82
2023-01-29T18:01:06.303Z,65.27
2023-01-29T18:06:09.130Z,65.00
2023-01-29T18:11:12.218Z,64.60
2023-01-29T18:16:13.972Z,64.04
2023-01-29T18:21:15.667Z,64.20
2023-01-29T18:26:17.373Z,64.33
2023-01-29T18:31:18.950Z,64.97
2023-01-29T18:36:20.601Z,64.87
2023-01-29T18:41:22.164Z,65.99
2023-01-29T18:46:24.407Z,66.05
2023-01-29T18:51:25.922Z,65.88
2023-01-29T18:56:27.410Z,65.77
2023-01-29T19:01:29.889Z,65.65
2023-01-29T19:06:37.029Z,66.11
2023-01-29T19:11:38.765Z,66.41
2023-01-29T19:16:40.751Z,66.07
2023-01-29T19:21:42.833Z,66.55
2023-01-29T19:26:44.344Z,66.62
2023-01-29T19:31:46.961Z,66.36
2023-01-29T19:36:48.478Z,65.95
2023-01-29T19:41:49.943Z,65.42
2023-01-29T19:46:51.523Z,66.14
2023-01-29T19:51:55.549Z,65.71
2023-01-29T19:56:57.119Z,65.42
2023-01-29T20:01:58.632Z,65.37
2023-01-29T20:07:00.164Z,64.53
2023-01-29T20:12:01.840Z,65.03
2023-01-29T20:17:03.305Z,65.47
2023-01-29T20:22:05.498Z,65.03
2023-01-29T20:27:10.344Z,64.81
2023-01-29T20:32:13.357Z,65.95
2023-01-29T20:37:14.819Z,66.42
2023-01-29T20:42:16.400Z,66.31
2023-01-29T20:47:18.175Z,66.22
2023-01-29T20:52:19.641Z,65.85
2023-01-29T20:57:21.312Z,66.42
2023-01-29T21:02:22.977Z,67.13
2023-01-29T21:07:24.563Z,67.33
2023-01-29T21:12:26.132Z,67.36
2023-01-29T21:17:28.225Z,67.64
2023-01-29T21:22:31.018Z,67.03
2023-01-29T21:27:32.488Z,67.30
2023-01-29T21:32:34.266Z,66.46
2023-01-29T21:37:37.387Z,65.92
2023-01-29T21:42:57.480Z,65.86
2023-01-29T21:47:58.976Z,66.49
2023-01-29T21:53:01.254Z,66.80
2023-01-29T21:58:03.839Z,66.09
2023-01-29T22:03:06.389Z,65.89
2023-01-29T22:08:07.913Z,66.27
2023-01-29T22:13:09.579Z,66.23
2023-01-29T22:18:11.158Z,65.45
2023-01-29T22:23:13.339Z,65.43
2023-01-29T22:28:18.296Z,65.38
2023-01-29T22:33:20.171Z,65.49
2023-01-29T22:38:23.393Z,65.40
2023-01-29T22:43:25.468Z,65.65
2023-01-29T22:48:28.169Z,65.13
2023-01-29T22:53:29.643Z,64.49
2023-01-29T22:58:31.207Z,65.21
2023-01-29T23:03:33.208Z,64.44
2023-01-29T23:08:34.764Z,64.51
2023-01-29T23:13:36.241Z,64.67
2023-01-29T23:18:37.812Z,64.91
2023-01-29T23:23:39.904Z,66.04
2023-01-29T23:28:41.669Z,66.41
2023-01-29T23:33:43.550Z,65.97
2023-01-29T23:38:45.125Z,65.80
2023-01-29T23:43:46.694Z,65.09
2023-01-29T23:48:48.163Z,66.13
2023-01-29T23:53:49.633Z,65.72
2023-01-29T23:58:55.326Z,65.29
